createdAt,value
2022-12-04T00:01:05.346Z,4.5
2022-12-04T00:02:12.407Z,4.5
2022-12-04T00:03:20.095Z,4.5
2022-12-04T00:04:26.797Z,4.5
2022-12-04T00:05:33.727Z,4.5
2022-12-04T00:06:40.335Z,4.5
2022-12-04T00:07:47.503Z,4.5
2022-12-04T00:08:54.679Z,4.5
2022-12-04T00:10:01.647Z,4.5
2022-12-04T00:12:15.322Z,4.4
2022-12-04T00:13:22.432Z,4.4
2022-12-04T00:15:36.707Z,4.5
2022-12-04T00:16:43.781Z,4.5
2022-12-04T00:17:50.344Z,4.5
2022-12-04T00:18:57.398Z,4.5
2022-12-04T00:20:04.539Z,4.5
2022-12-04T00:21:11.660Z,4.4
2022-12-04T00:22:18.739Z,4.4
2022-12-04T00:23:25.375Z,4.4
2022-12-04T00:24:32.533Z,4.4
2022-12-04T00:25:42.557Z,4.4
2022-12-04T00:26:46.641Z,4.4
2022-12-04T00:27:53.778Z,4.3
2022-12-04T00:29:00.358Z,4.3
2022-12-04T00:30:07.440Z,4.3
2022-12-04T00:31:14.640Z,4.3
2022-12-04T00:32:21.677Z,4.3
2022-12-04T00:33:28.736Z,4.3
2022-12-04T00:34:35.381Z,4.3
2022-12-04T00:35:42.829Z,4.2
2022-12-04T00:36:49.751Z,4.2
2022-12-04T00:37:56.676Z,4.2
2022-12-04T00:39:03.787Z,4.2
2022-12-04T00:40:10.416Z,4.2
2022-12-04T00:41:17.461Z,4.2
2022-12-04T00:42:24.585Z,4.2
2022-12-04T00:43:31.687Z,4.2
2022-12-04T00:44:38.228Z,4.2
2022-12-04T00:45:45.399Z,4.2
2022-12-04T00:46:52.542Z,4.2
2022-12-04T00:47:59.575Z,4.1
2022-12-04T00:49:06.680Z,4.2
2022-12-04T00:50:13.238Z,4.2
2022-12-04T00:51:20.373Z,4.2
2022-12-04T00:53:34.585Z,4.2
2022-12-04T00:55:48.594Z,4.2
2022-12-04T00:56:55.458Z,4.2
2022-12-04T00:58:02.483Z,4.2
2022-12-04T00:59:09.582Z,4.2
2022-12-04T01:00:16.675Z,4.2
2022-12-04T01:01:23.494Z,4.2
2022-12-04T01:02:30.491Z,4.2
2022-12-04T01:03:37.476Z,4.1
2022-12-04T01:04:44.615Z,4.1
2022-12-04T01:05:51.698Z,4.1
2022-12-04T01:07:03.191Z,4.1
2022-12-04T01:08:05.466Z,4.1
2022-12-04T01:09:12.513Z,4.1
2022-12-04T01:10:19.580Z,4.1
2022-12-04T01:11:26.760Z,4.1
2022-12-04T01:12:33.378Z,4.1
2022-12-04T01:13:40.419Z,4.1
2022-12-04T01:14:47.533Z,4.1
2022-12-04T01:15:54.745Z,4.1
2022-12-04T01:17:01.803Z,4.1
2022-12-04T01:19:15.457Z,4.1
2022-12-04T01:20:22.521Z,4.1
2022-12-04T01:21:29.669Z,4.1
2022-12-04T01:22:36.721Z,4.1
2022-12-04T01:23:43.326Z,4.1
2022-12-04T01:24:50.459Z,4.1
2022-12-04T01:25:57.502Z,4.1
2022-12-04T01:27:04.672Z,4.1
2022-12-04T01:28:11.748Z,4.1
2022-12-04T01:29:18.308Z,4.1
2022-12-04T01:30:25.479Z,4.1
2022-12-04T01:31:33.148Z,4.1
2022-12-04T01:32:39.608Z,4.1
2022-12-04T01:34:53.334Z,4.1
2022-12-04T01:36:00.436Z,4.1
2022-12-04T01:37:07.563Z,4.1
2022-12-04T01:38:14.640Z,4.1
2022-12-04T01:39:21.764Z,4.1
2022-12-04T01:40:28.332Z,4.1
2022-12-04T01:41:35.480Z,4.1
2022-12-04T01:42:42.559Z,4.1
2022-12-04T01:43:49.638Z,4.1
2022-12-04T01:44:56.747Z,4.1
2022-12-04T01:46:03.410Z,4.1
2022-12-04T01:47:10.541Z,4.1
2022-12-04T01:48:17.525Z,4.1
2022-12-04T01:49:24.664Z,4.1
2022-12-04T01:50:31.768Z,4.1
2022-12-04T01:51:38.426Z,4.1
2022-12-04T01:52:45.461Z,4.1
2022-12-04T01:53:52.562Z,4.1
2022-12-04T01:54:59.638Z,4.1
2022-12-04T01:56:06.771Z,4.1
2022-12-04T01:57:13.363Z,4.1
2022-12-04T01:58:20.494Z,4.1
2022-12-04T01:59:27.538Z,4.1
2022-12-04T02:00:34.641Z,4.1
2022-12-04T02:01:41.862Z,4
2022-12-04T02:02:48.453Z,4
2022-12-04T02:03:55.477Z,4
2022-12-04T02:05:02.576Z,4
2022-12-04T02:06:09.649Z,4
2022-12-04T02:07:16.768Z,4
2022-12-04T02:08:23.378Z,3.9
2022-12-04T02:09:30.490Z,3.9
2022-12-04T02:10:37.568Z,3.9
2022-12-04T02:11:44.839Z,3.9
2022-12-04T02:12:51.806Z,3.9
2022-12-04T02:13:58.356Z,3.9
2022-12-04T02:16:12.686Z,3.9
2022-12-04T02:17:19.670Z,3.9
2022-12-04T02:18:26.797Z,3.9
2022-12-04T02:19:33.398Z,3.8
2022-12-04T02:20:40.491Z,3.8
2022-12-04T02:24:01.317Z,3.7
2022-12-04T02:25:08.377Z,3.7
2022-12-04T02:26:15.547Z,3.7
2022-12-04T02:27:22.637Z,3.7
2022-12-04T02:28:29.677Z,3.6
2022-12-04T02:29:36.313Z,3.6
2022-12-04T02:30:43.469Z,3.6
2022-12-04T02:31:50.509Z,3.6
2022-12-04T02:32:57.593Z,3.5
2022-12-04T02:34:04.724Z,3.5
2022-12-04T02:35:11.318Z,3.5
2022-12-04T02:36:18.462Z,3.4
2022-12-04T02:37:25.498Z,3.4
2022-12-04T02:38:32.654Z,3.4
2022-12-04T02:39:39.714Z,3.4
2022-12-04T02:40:46.322Z,3.4
2022-12-04T02:41:53.436Z,3.3
2022-12-04T02:43:00.495Z,3.3
2022-12-04T02:44:07.629Z,3.3
2022-12-04T02:45:14.736Z,3.3
2022-12-04T02:46:21.450Z,3.2
2022-12-04T02:47:28.406Z,3.2
2022-12-04T02:48:35.606Z,3.2
2022-12-04T02:49:42.639Z,3.2
2022-12-04T02:50:49.735Z,3.2
2022-12-04T02:51:56.344Z,3.2
2022-12-04T02:53:03.458Z,3.2
2022-12-04T02:54:10.544Z,3.2
2022-12-04T02:55:17.641Z,3.2
2022-12-04T02:57:31.412Z,3.2
2022-12-04T02:58:38.405Z,3.2
2022-12-04T02:59:46.041Z,3.2
2022-12-04T03:00:52.719Z,3.2
2022-12-04T03:01:59.841Z,3.2
2022-12-04T03:03:06.341Z,3.2
2022-12-04T03:04:13.489Z,3.2
2022-12-04T03:05:20.567Z,3.2
2022-12-04T03:06:27.627Z,3.1
2022-12-04T03:07:34.792Z,3.1
2022-12-04T03:08:41.355Z,3.1
2022-12-04T03:09:48.438Z,3.1
2022-12-04T03:10:55.576Z,3
2022-12-04T03:12:02.749Z,3
2022-12-04T03:13:09.795Z,3
2022-12-04T03:14:16.348Z,3
2022-12-04T03:15:23.511Z,3
2022-12-04T03:16:30.645Z,3
2022-12-04T03:17:37.645Z,3
2022-12-04T03:18:44.787Z,3
2022-12-04T03:19:51.371Z,3
2022-12-04T03:20:58.465Z,3
2022-12-04T03:22:05.632Z,3
2022-12-04T03:23:12.693Z,2.9
2022-12-04T03:24:19.780Z,2.9
2022-12-04T03:26:33.487Z,2.8
2022-12-04T03:27:40.575Z,2.8
2022-12-04T03:28:47.654Z,2.8
2022-12-04T03:29:55.088Z,2.8
2022-12-04T03:31:01.433Z,2.8
2022-12-04T03:32:08.536Z,2.8
2022-12-04T03:33:15.586Z,2.7
2022-12-04T03:34:22.722Z,2.7
2022-12-04T03:35:29.786Z,2.7
2022-12-04T03:36:36.555Z,2.7
2022-12-04T03:38:50.608Z,2.6
2022-12-04T03:39:57.836Z,2.6
2022-12-04T03:41:04.809Z,2.6
2022-12-04T03:42:11.393Z,2.6
2022-12-04T03:43:18.480Z,2.6
2022-12-04T03:44:25.643Z,2.6
2022-12-04T03:45:32.736Z,2.6
2022-12-04T03:46:39.908Z,2.7
2022-12-04T03:47:46.426Z,2.7
2022-12-04T03:48:53.507Z,2.7
2022-12-04T03:50:00.587Z,2.7
2022-12-04T03:52:14.817Z,2.7
2022-12-04T03:53:21.446Z,2.7
2022-12-04T03:54:28.532Z,2.7
2022-12-04T03:55:35.656Z,2.7
2022-12-04T03:56:42.774Z,2.7
2022-12-04T03:57:49.815Z,2.7
2022-12-04T03:58:56.427Z,2.7
2022-12-04T04:00:04.001Z,2.7
2022-12-04T04:01:10.718Z,2.7
2022-12-04T04:02:17.878Z,2.6
2022-12-04T04:03:24.329Z,2.6
2022-12-04T04:04:31.432Z,2.6
2022-12-04T04:05:38.498Z,2.6
2022-12-04T04:06:45.667Z,2.6
2022-12-04T04:07:52.829Z,2.6
2022-12-04T04:08:59.316Z,2.6
2022-12-04T04:10:06.407Z,2.7
2022-12-04T04:11:13.551Z,2.6
2022-12-04T04:12:20.704Z,2.6
2022-12-04T04:13:27.720Z,2.7
2022-12-04T04:14:34.329Z,2.6
2022-12-04T04:15:43.068Z,2.6
2022-12-04T04:16:48.526Z,2.7
2022-12-04T04:17:55.665Z,2.6
2022-12-04T04:20:09.311Z,2.7
2022-12-04T04:21:16.463Z,2.7
2022-12-04T04:22:23.645Z,2.7
2022-12-04T04:23:30.690Z,2.7
2022-12-04T04:24:37.735Z,2.7
2022-12-04T04:25:44.368Z,2.7
2022-12-04T04:26:51.539Z,2.7
2022-12-04T04:27:59.067Z,2.7
2022-12-04T04:30:12.768Z,2.7
2022-12-04T04:31:19.408Z,2.8
2022-12-04T04:32:26.527Z,2.8
2022-12-04T04:33:33.578Z,2.8
2022-12-04T04:34:40.715Z,2.8
2022-12-04T04:35:47.888Z,2.8
2022-12-04T04:36:54.454Z,2.8
2022-12-04T04:38:01.495Z,2.7
2022-12-04T04:39:08.550Z,2.7
2022-12-04T04:40:15.690Z,2.7
2022-12-04T04:41:22.770Z,2.7
2022-12-04T04:42:29.342Z,2.7
2022-12-04T04:43:36.516Z,2.7
2022-12-04T04:44:43.610Z,2.8
2022-12-04T04:45:50.705Z,2.7
2022-12-04T04:46:57.950Z,2.7
2022-12-04T04:48:04.391Z,2.7
2022-12-04T04:49:11.485Z,2.7
2022-12-04T04:50:18.597Z,2.7
2022-12-04T04:51:25.745Z,2.7
2022-12-04T04:52:32.837Z,2.7
2022-12-04T04:53:39.362Z,2.7
2022-12-04T04:54:46.526Z,2.7
2022-12-04T04:55:53.596Z,2.7
2022-12-04T04:57:00.673Z,2.7
2022-12-04T04:58:07.808Z,2.7
2022-12-04T04:59:14.422Z,2.7
2022-12-04T05:01:28.724Z,2.7
2022-12-04T05:02:35.747Z,2.7
2022-12-04T05:03:42.948Z,2.7
2022-12-04T05:04:49.375Z,2.7
2022-12-04T05:05:56.526Z,2.8
2022-12-04T05:07:03.644Z,2.8
2022-12-04T05:08:10.811Z,2.8
2022-12-04T05:09:17.800Z,2.8
2022-12-04T05:10:24.437Z,2.8
2022-12-04T05:11:31.599Z,2.8
2022-12-04T05:12:38.705Z,2.8
2022-12-04T05:13:45.749Z,2.8
2022-12-04T05:14:52.883Z,2.8
2022-12-04T05:15:59.568Z,2.8
2022-12-04T05:17:12.403Z,2.8
2022-12-04T05:18:13.650Z,2.8
2022-12-04T05:20:28.034Z,2.8
2022-12-04T05:21:34.429Z,2.8
2022-12-04T05:22:41.577Z,2.8
2022-12-04T05:23:48.626Z,2.8
2022-12-04T05:24:55.767Z,2.8
2022-12-04T05:26:02.848Z,2.8
2022-12-04T05:27:09.468Z,2.8
2022-12-04T05:28:16.562Z,2.8
2022-12-04T05:29:23.669Z,2.8
2022-12-04T05:30:30.766Z,2.8
2022-12-04T05:31:37.914Z,2.8
2022-12-04T05:33:51.554Z,2.8
2022-12-04T05:34:58.658Z,2.8
2022-12-04T05:36:05.821Z,2.8
2022-12-04T05:37:12.918Z,2.8
2022-12-04T05:38:19.457Z,2.9
2022-12-04T05:39:26.586Z,2.9
2022-12-04T05:40:33.678Z,2.9
2022-12-04T05:42:47.917Z,2.9
2022-12-04T05:43:54.477Z,2.9
2022-12-04T05:45:01.556Z,2.9
2022-12-04T05:46:08.881Z,2.9
2022-12-04T05:47:15.793Z,2.9
2022-12-04T05:48:22.901Z,2.8
2022-12-04T05:49:29.557Z,2.8
2022-12-04T05:50:36.580Z,2.8
2022-12-04T05:51:43.761Z,2.8
2022-12-04T05:52:50.797Z,2.8
2022-12-04T05:53:57.341Z,2.7
2022-12-04T05:55:04.484Z,2.7
2022-12-04T05:56:12.123Z,2.6
2022-12-04T05:57:18.667Z,2.6
2022-12-04T05:58:25.813Z,2.6
2022-12-04T05:59:32.381Z,2.6
2022-12-04T06:00:39.489Z,2.6
2022-12-04T06:01:46.709Z,2.6
2022-12-04T06:02:53.779Z,2.5
2022-12-04T06:04:00.762Z,2.5
2022-12-04T06:05:07.377Z,2.4
2022-12-04T06:06:20.750Z,2.4
2022-12-04T06:07:21.662Z,2.4
2022-12-04T06:08:28.662Z,2.4
2022-12-04T06:09:35.819Z,2.4
2022-12-04T06:10:42.406Z,2.4
2022-12-04T06:11:49.480Z,2.4
2022-12-04T06:12:56.589Z,2.3
2022-12-04T06:14:03.675Z,2.3
2022-12-04T06:15:10.849Z,2.3
2022-12-04T06:16:17.478Z,2.3
2022-12-04T06:17:24.557Z,2.3
2022-12-04T06:18:31.632Z,2.2
2022-12-04T06:19:38.683Z,2.2
2022-12-04T06:20:45.877Z,2.2
2022-12-04T06:21:52.429Z,2.2
2022-12-04T06:24:06.610Z,2.2
2022-12-04T06:25:13.718Z,2.2
2022-12-04T06:26:20.821Z,2.1
2022-12-04T06:27:28.560Z,2.1
2022-12-04T06:28:34.521Z,2
2022-12-04T06:29:41.645Z,2
2022-12-04T06:30:48.716Z,2
2022-12-04T06:31:55.960Z,2
2022-12-04T06:33:02.436Z,1.9
2022-12-04T06:34:09.522Z,1.9
2022-12-04T06:35:16.962Z,1.9
2022-12-04T06:37:30.858Z,1.8
2022-12-04T06:38:37.417Z,1.8
2022-12-04T06:39:44.525Z,1.8
2022-12-04T06:40:51.645Z,1.8
2022-12-04T06:41:58.809Z,1.8
2022-12-04T06:43:05.837Z,1.8
2022-12-04T06:44:12.482Z,1.8
2022-12-04T06:45:19.513Z,1.8
2022-12-04T06:46:26.737Z,1.8
2022-12-04T06:48:40.923Z,1.8
2022-12-04T06:49:47.423Z,1.7
2022-12-04T06:50:54.539Z,1.7
2022-12-04T06:52:01.654Z,1.7
2022-12-04T06:53:08.851Z,1.7
2022-12-04T06:54:15.878Z,1.7
2022-12-04T06:55:22.487Z,1.6
2022-12-04T06:56:29.560Z,1.7
2022-12-04T06:57:36.736Z,1.6
2022-12-04T06:58:43.779Z,1.6
2022-12-04T06:59:50.870Z,1.6
2022-12-04T07:00:57.523Z,1.6
2022-12-04T07:02:04.678Z,1.6
2022-12-04T07:03:11.700Z,1.6
2022-12-04T07:05:25.896Z,1.6
2022-12-04T07:06:32.486Z,1.6
2022-12-04T07:07:39.702Z,1.5
2022-12-04T07:08:46.651Z,1.5
2022-12-04T07:09:54.111Z,1.5
2022-12-04T07:11:00.865Z,1.5
2022-12-04T07:12:07.557Z,1.5
2022-12-04T07:13:14.558Z,1.5
2022-12-04T07:14:21.688Z,1.5
2022-12-04T07:15:28.755Z,1.4
2022-12-04T07:16:40.889Z,1.5
2022-12-04T07:17:42.478Z,1.4
2022-12-04T07:18:49.557Z,1.4
2022-12-04T07:19:56.967Z,1.4
2022-12-04T07:21:03.798Z,1.4
2022-12-04T07:22:10.966Z,1.4
2022-12-04T07:23:17.480Z,1.3
2022-12-04T07:24:25.085Z,1.3
2022-12-04T07:25:31.694Z,1.3
2022-12-04T07:26:38.826Z,1.3
2022-12-04T07:27:45.358Z,1.3
2022-12-04T07:28:52.494Z,1.3
2022-12-04T07:29:59.605Z,1.3
2022-12-04T07:31:06.688Z,1.3
2022-12-04T07:32:13.888Z,1.4
2022-12-04T07:33:20.919Z,1.4
2022-12-04T07:34:27.501Z,1.4
2022-12-04T07:35:34.605Z,1.4
2022-12-04T07:36:41.759Z,1.4
2022-12-04T07:37:48.807Z,1.4
2022-12-04T07:38:55.395Z,1.4
2022-12-04T07:41:09.616Z,1.4
2022-12-04T07:42:22.546Z,1.5
2022-12-04T07:43:23.827Z,1.5
2022-12-04T07:44:30.464Z,1.6
2022-12-04T07:46:44.688Z,1.6
2022-12-04T07:47:51.730Z,1.6
2022-12-04T07:48:58.808Z,1.6
2022-12-04T07:50:05.461Z,1.6
2022-12-04T07:51:12.533Z,1.7
2022-12-04T07:52:19.736Z,1.7
2022-12-04T07:53:26.725Z,1.7
2022-12-04T07:54:33.858Z,1.7
2022-12-04T07:55:42.957Z,1.8
2022-12-04T07:56:47.495Z,1.8
2022-12-04T07:57:54.665Z,1.8
2022-12-04T07:59:01.758Z,1.8
2022-12-04T08:00:08.835Z,1.8
2022-12-04T08:01:15.656Z,1.8
2022-12-04T08:02:22.599Z,1.8
2022-12-04T08:03:29.639Z,1.7
2022-12-04T08:04:36.809Z,1.8
2022-12-04T08:05:43.885Z,1.7
2022-12-04T08:06:50.525Z,1.7
2022-12-04T08:07:57.540Z,1.7
2022-12-04T08:09:09.542Z,1.7
2022-12-04T08:10:11.756Z,1.7
2022-12-04T08:11:18.858Z,1.7
2022-12-04T08:12:25.475Z,1.7
2022-12-04T08:13:32.553Z,1.7
2022-12-04T08:14:39.664Z,1.7
2022-12-04T08:15:46.800Z,1.7
2022-12-04T08:16:53.995Z,1.7
2022-12-04T08:18:00.458Z,1.7
2022-12-04T08:19:07.527Z,1.7
2022-12-04T08:20:14.695Z,1.7
2022-12-04T08:21:21.776Z,1.7
2022-12-04T08:22:28.940Z,1.7
2022-12-04T08:23:35.464Z,1.7
2022-12-04T08:24:42.618Z,1.8
2022-12-04T08:25:49.664Z,1.8
2022-12-04T08:28:03.915Z,1.8
2022-12-04T08:29:10.478Z,1.8
2022-12-04T08:30:17.584Z,1.8
2022-12-04T08:31:24.795Z,1.8
2022-12-04T08:32:31.848Z,1.8
2022-12-04T08:33:38.883Z,1.8
2022-12-04T08:34:46.476Z,1.8
2022-12-04T08:35:52.630Z,1.8
2022-12-04T08:36:59.697Z,1.8
2022-12-04T08:38:06.795Z,1.8
2022-12-04T08:39:13.916Z,1.8
2022-12-04T08:40:20.501Z,1.8
2022-12-04T08:41:27.574Z,1.9
2022-12-04T08:42:34.768Z,1.8
2022-12-04T08:44:48.908Z,1.8
2022-12-04T08:45:55.569Z,1.7
2022-12-04T08:47:02.650Z,1.7
2022-12-04T08:48:09.683Z,1.6
2022-12-04T08:49:16.850Z,1.6
2022-12-04T08:50:23.912Z,1.6
2022-12-04T08:51:30.528Z,1.6
2022-12-04T08:52:38.137Z,1.6
2022-12-04T08:53:44.739Z,1.6
2022-12-04T08:54:51.855Z,1.6
2022-12-04T08:55:58.899Z,1.6
2022-12-04T08:57:05.578Z,1.6
2022-12-04T08:58:12.644Z,1.5
2022-12-04T08:59:19.720Z,1.5
2022-12-04T09:00:26.809Z,1.5
2022-12-04T09:01:34.068Z,1.5
2022-12-04T09:02:40.604Z,1.5
2022-12-04T09:03:47.615Z,1.4
2022-12-04T09:04:54.840Z,1.4
2022-12-04T09:06:01.878Z,1.4
2022-12-04T09:07:08.967Z,1.4
2022-12-04T09:09:22.652Z,1.4
2022-12-04T09:10:29.757Z,1.4
2022-12-04T09:11:36.840Z,1.4
2022-12-04T09:12:44.015Z,1.4
2022-12-04T09:13:50.565Z,1.4
2022-12-04T09:14:57.636Z,1.4
2022-12-04T09:16:04.897Z,1.4
2022-12-04T09:17:11.907Z,1.4
2022-12-04T09:18:18.930Z,1.5
2022-12-04T09:19:25.551Z,1.5
2022-12-04T09:20:32.693Z,1.5
2022-12-04T09:21:39.725Z,1.5
2022-12-04T09:23:03.336Z,1.5
2022-12-04T09:23:53.974Z,1.5
2022-12-04T09:25:00.552Z,1.4
2022-12-04T09:26:08.715Z,1.4
2022-12-04T09:27:15.174Z,1.4
2022-12-04T09:28:21.885Z,1.4
2022-12-04T09:29:28.958Z,1.4
2022-12-04T09:30:35.572Z,1.4
2022-12-04T09:31:42.706Z,1.4
2022-12-04T09:32:49.800Z,1.4
2022-12-04T09:33:56.842Z,1.4
2022-12-04T09:35:03.516Z,1.4
2022-12-04T09:36:10.581Z,1.4
2022-12-04T09:37:17.663Z,1.3
2022-12-04T09:38:24.801Z,1.3
2022-12-04T09:39:31.908Z,1.2
2022-12-04T09:40:38.505Z,1.2
2022-12-04T09:41:45.641Z,1.2
2022-12-04T09:42:52.697Z,1.2
2022-12-04T09:43:59.756Z,1.2
2022-12-04T09:45:06.887Z,1.2
2022-12-04T09:46:13.585Z,1.2
2022-12-04T09:48:27.753Z,1.2
2022-12-04T09:50:41.903Z,1.2
2022-12-04T09:51:48.488Z,1.2
2022-12-04T09:52:55.587Z,1.2
2022-12-04T09:54:02.721Z,1.2
2022-12-04T09:55:09.771Z,1.2
2022-12-04T09:56:16.894Z,1.2
2022-12-04T09:57:23.564Z,1.2
2022-12-04T09:58:30.605Z,1.2
2022-12-04T09:59:37.676Z,1.2
2022-12-04T10:00:44.800Z,1.2
2022-12-04T10:01:51.966Z,1.2
2022-12-04T10:02:58.649Z,1.2
2022-12-04T10:04:06.515Z,1.2
2022-12-04T10:05:12.726Z,1.2
2022-12-04T10:06:20.366Z,1.2
2022-12-04T10:07:27.183Z,1.2
2022-12-04T10:08:33.516Z,1.2
2022-12-04T10:09:40.613Z,1.2
2022-12-04T10:10:47.718Z,1.2
2022-12-04T10:11:54.897Z,1.2
2022-12-04T10:13:01.939Z,1.2
2022-12-04T10:14:08.523Z,1.2
2022-12-04T10:15:15.623Z,1.2
2022-12-04T10:16:22.860Z,1.2
2022-12-04T10:17:32.937Z,1.2
2022-12-04T10:18:36.928Z,1.2
2022-12-04T10:19:43.522Z,1.2
2022-12-04T10:21:57.779Z,1.2
2022-12-04T10:23:08.085Z,1.2
2022-12-04T10:24:11.958Z,1.2
2022-12-04T10:25:18.546Z,1.2
2022-12-04T10:26:25.638Z,1.2
2022-12-04T10:27:32.797Z,1.2
2022-12-04T10:28:39.814Z,1.2
2022-12-04T10:29:46.959Z,1.2
2022-12-04T10:32:00.632Z,1.2
2022-12-04T10:33:07.742Z,1.2
2022-12-04T10:34:14.866Z,1.2
2022-12-04T10:35:21.978Z,1.2
2022-12-04T10:36:28.530Z,1.2
2022-12-04T10:37:35.702Z,1.2
2022-12-04T10:38:42.772Z,1.2
2022-12-04T10:39:49.852Z,1.2
2022-12-04T10:40:56.944Z,1.2
2022-12-04T10:42:03.610Z,1.2
2022-12-04T10:43:10.672Z,1.2
2022-12-04T10:44:17.756Z,1.2
2022-12-04T10:45:24.884Z,1.2
2022-12-04T10:46:32.056Z,1.2
2022-12-04T10:47:38.547Z,1.2
2022-12-04T10:48:45.710Z,1.2
2022-12-04T10:49:53.055Z,1.2
2022-12-04T10:55:27.827Z,1.4
2022-12-04T10:57:42.039Z,1.4
2022-12-04T10:58:48.539Z,1.4
2022-12-04T10:59:56.023Z,1.4
2022-12-04T11:01:02.806Z,1.4
2022-12-04T11:02:10.038Z,1.4
2022-12-04T11:03:17.033Z,1.5
2022-12-04T11:04:23.575Z,1.5
2022-12-04T11:05:30.675Z,1.6
2022-12-04T11:06:37.766Z,1.6
2022-12-04T11:07:45.037Z,1.6
2022-12-04T11:08:52.025Z,1.6
2022-12-04T11:09:59.638Z,1.6
2022-12-04T11:11:05.706Z,1.6
2022-12-04T11:13:19.879Z,1.6
2022-12-04T11:14:27.031Z,1.7
2022-12-04T11:15:33.616Z,1.7
2022-12-04T11:16:40.741Z,1.7
2022-12-04T11:17:47.862Z,1.7
2022-12-04T11:18:54.923Z,1.7
2022-12-04T11:20:02.019Z,1.8
2022-12-04T11:21:08.586Z,1.8
2022-12-04T11:22:15.782Z,1.8
2022-12-04T11:23:22.808Z,1.8
2022-12-04T11:24:29.899Z,1.8
2022-12-04T11:25:36.504Z,1.8
2022-12-04T11:26:43.602Z,1.8
2022-12-04T11:27:50.768Z,1.8
2022-12-04T11:28:57.810Z,1.9
2022-12-04T11:30:04.409Z,1.9
2022-12-04T11:31:12.160Z,1.9
2022-12-04T11:32:18.673Z,1.9
2022-12-04T11:33:25.754Z,2
2022-12-04T11:34:32.824Z,2
2022-12-04T11:35:43.020Z,2
2022-12-04T11:36:46.568Z,2
2022-12-04T11:37:53.838Z,2
2022-12-04T11:39:00.736Z,2
2022-12-04T11:40:07.816Z,2
2022-12-04T11:41:14.958Z,2
2022-12-04T11:42:21.528Z,2
2022-12-04T11:43:28.617Z,2
2022-12-04T11:44:35.739Z,2
2022-12-04T11:45:43.037Z,2
2022-12-04T11:46:49.984Z,2
2022-12-04T11:47:56.605Z,2
2022-12-04T11:50:10.806Z,2
2022-12-04T11:51:17.834Z,2
2022-12-04T11:52:24.964Z,2
2022-12-04T11:55:45.779Z,2.1
2022-12-04T11:56:52.887Z,2.2
2022-12-04T11:58:00.008Z,2.2
2022-12-04T11:59:06.552Z,2.2
2022-12-04T12:00:13.703Z,2.2
2022-12-04T12:01:20.781Z,2.2
2022-12-04T12:02:27.968Z,2.2
2022-12-04T12:03:35.133Z,2.2
2022-12-04T12:04:41.607Z,2.2
2022-12-04T12:05:48.637Z,2.2
2022-12-04T12:06:55.842Z,2.2
2022-12-04T12:09:09.970Z,2.2
2022-12-04T12:10:16.721Z,2.2
2022-12-04T12:11:23.713Z,2.2
2022-12-04T12:12:30.880Z,2.2
2022-12-04T12:13:38.408Z,2.3
2022-12-04T12:14:44.967Z,2.2
2022-12-04T12:15:51.570Z,2.2
2022-12-04T12:16:58.696Z,2.2
2022-12-04T12:18:05.819Z,2.3
2022-12-04T12:19:12.913Z,2.3
2022-12-04T12:20:19.987Z,2.3
2022-12-04T12:21:26.568Z,2.3
2022-12-04T12:22:33.758Z,2.4
2022-12-04T12:23:40.832Z,2.4
2022-12-04T12:24:51.371Z,2.4
2022-12-04T12:25:55.033Z,2.4
2022-12-04T12:27:01.586Z,2.4
2022-12-04T12:28:08.667Z,2.4
2022-12-04T12:29:15.796Z,2.5
2022-12-04T12:30:22.939Z,2.5
2022-12-04T12:31:30.063Z,2.6
2022-12-04T12:32:36.672Z,2.6
2022-12-04T12:33:43.701Z,2.6
2022-12-04T12:35:57.908Z,2.6
2022-12-04T12:37:05.077Z,2.6
2022-12-04T12:38:11.654Z,2.6
2022-12-04T12:39:18.709Z,2.6
2022-12-04T12:40:25.839Z,2.6
2022-12-04T12:41:32.924Z,2.6
2022-12-04T12:42:40.072Z,2.6
2022-12-04T12:43:46.661Z,2.6
2022-12-04T12:44:53.753Z,2.6
2022-12-04T12:46:00.861Z,2.6
2022-12-04T12:47:07.987Z,2.6
2022-12-04T12:48:15.163Z,2.6
2022-12-04T12:49:21.646Z,2.6
2022-12-04T12:50:28.719Z,2.6
2022-12-04T12:51:35.825Z,2.6
2022-12-04T12:52:42.431Z,2.6
2022-12-04T12:53:50.045Z,2.6
2022-12-04T12:54:56.637Z,2.6
2022-12-04T12:56:03.725Z,2.6
2022-12-04T12:57:10.917Z,2.6
2022-12-04T12:59:25.143Z,2.6
2022-12-04T13:00:31.636Z,2.6
2022-12-04T13:01:38.838Z,2.6
2022-12-04T13:02:46.002Z,2.6
2022-12-04T13:03:52.979Z,2.6
2022-12-04T13:05:00.058Z,2.6
2022-12-04T13:06:06.642Z,2.6
2022-12-04T13:07:13.766Z,2.6
2022-12-04T13:08:21.042Z,2.6
2022-12-04T13:09:27.977Z,2.6
2022-12-04T13:10:35.090Z,2.6
2022-12-04T13:11:41.662Z,2.6
2022-12-04T13:12:48.782Z,2.6
2022-12-04T13:13:55.865Z,2.6
2022-12-04T13:15:02.976Z,2.6
2022-12-04T13:16:10.167Z,2.7
2022-12-04T13:18:23.797Z,2.7
2022-12-04T13:19:30.894Z,2.7
2022-12-04T13:20:37.973Z,2.7
2022-12-04T13:21:44.598Z,2.8
2022-12-04T13:22:51.748Z,2.8
2022-12-04T13:23:58.744Z,2.8
2022-12-04T13:25:05.850Z,2.8
2022-12-04T13:26:13.007Z,2.8
2022-12-04T13:27:19.557Z,2.8
2022-12-04T13:28:26.689Z,2.8
2022-12-04T13:29:33.805Z,2.8
2022-12-04T13:30:40.886Z,2.9
2022-12-04T13:31:48.029Z,2.9
2022-12-04T13:32:54.639Z,3
2022-12-04T13:34:01.675Z,3
2022-12-04T13:35:08.769Z,3
2022-12-04T13:36:16.062Z,3
2022-12-04T13:37:23.077Z,3
2022-12-04T13:38:30.105Z,3.1
2022-12-04T13:39:36.681Z,3.1
2022-12-04T13:40:43.804Z,3.1
2022-12-04T13:41:50.910Z,3.2
2022-12-04T13:42:57.985Z,3.2
2022-12-04T13:44:07.322Z,3.2
2022-12-04T13:45:11.707Z,3.2
2022-12-04T13:46:18.809Z,3.2
2022-12-04T13:47:26.064Z,3.2
2022-12-04T13:48:33.015Z,3.2
2022-12-04T13:49:39.567Z,3.2
2022-12-04T13:50:46.686Z,3.3
2022-12-04T13:51:53.839Z,3.2
2022-12-04T13:53:00.882Z,3.2
2022-12-04T13:54:08.018Z,3.2
2022-12-04T13:55:14.646Z,3.2
2022-12-04T13:56:21.738Z,3.3
2022-12-04T13:57:28.863Z,3.2
2022-12-04T13:58:35.931Z,3.2
2022-12-04T13:59:43.078Z,3.3
2022-12-04T14:00:49.646Z,3.3
2022-12-04T14:03:04.055Z,3.4
2022-12-04T14:04:10.973Z,3.4
2022-12-04T14:05:18.058Z,3.4
2022-12-04T14:06:24.625Z,3.4
2022-12-04T14:07:31.856Z,3.4
2022-12-04T14:08:38.793Z,3.4
2022-12-04T14:09:45.974Z,3.4
2022-12-04T14:10:53.041Z,3.4
2022-12-04T14:11:59.639Z,3.4
2022-12-04T14:13:06.816Z,3.4
2022-12-04T14:14:13.847Z,3.4
2022-12-04T14:15:20.446Z,3.4
2022-12-04T14:16:28.150Z,3.4
2022-12-04T14:17:34.667Z,3.4
2022-12-04T14:18:41.743Z,3.4
2022-12-04T14:19:48.869Z,3.4
2022-12-04T14:20:56.506Z,3.4
2022-12-04T14:22:03.077Z,3.4
2022-12-04T14:23:09.673Z,3.4
2022-12-04T14:24:16.782Z,3.4
2022-12-04T14:25:23.871Z,3.4
2022-12-04T14:27:03.231Z,3.3
2022-12-04T14:27:38.127Z,3.3
2022-12-04T14:28:44.668Z,3.3
2022-12-04T14:29:51.755Z,3.2
2022-12-04T14:30:58.861Z,3.2
2022-12-04T14:32:05.983Z,3.2
2022-12-04T14:33:13.169Z,3.2
2022-12-04T14:34:19.646Z,3.2
2022-12-04T14:35:26.751Z,3.2
2022-12-04T14:36:33.889Z,3.2
2022-12-04T14:37:41.053Z,3.2
2022-12-04T14:38:47.536Z,3.2
2022-12-04T14:39:54.689Z,3.1
2022-12-04T14:41:01.864Z,3.1
2022-12-04T14:42:08.885Z,3.1
2022-12-04T14:43:15.978Z,3.1
2022-12-04T14:44:23.112Z,3
2022-12-04T14:46:36.872Z,3
2022-12-04T14:47:43.971Z,3
2022-12-04T14:48:51.010Z,3
2022-12-04T14:49:58.091Z,3
2022-12-04T14:51:04.732Z,2.9
2022-12-04T14:52:11.818Z,2.9
2022-12-04T14:53:18.894Z,2.9
2022-12-04T14:54:25.998Z,2.9
2022-12-04T14:55:33.155Z,2.9
2022-12-04T14:56:39.726Z,2.9
2022-12-04T14:57:46.866Z,2.8
2022-12-04T14:58:53.959Z,2.8
2022-12-04T15:00:01.014Z,2.8
2022-12-04T15:01:08.088Z,2.8
2022-12-04T15:02:14.765Z,2.8
2022-12-04T15:03:21.954Z,2.8
2022-12-04T15:04:29.006Z,2.7
2022-12-04T15:06:43.127Z,2.7
2022-12-04T15:07:49.990Z,2.7
2022-12-04T15:08:56.806Z,2.6
2022-12-04T15:10:03.954Z,2.6
2022-12-04T15:11:11.022Z,2.6
2022-12-04T15:12:17.759Z,2.6
2022-12-04T15:13:24.743Z,2.6
2022-12-04T15:14:31.878Z,2.5
2022-12-04T15:15:38.963Z,2.5
2022-12-04T15:16:46.066Z,2.4
2022-12-04T15:17:52.618Z,2.4
2022-12-04T15:18:59.705Z,2.4
2022-12-04T15:20:06.795Z,2.4
2022-12-04T15:21:13.952Z,2.3
2022-12-04T15:22:21.367Z,2.3
2022-12-04T15:23:27.613Z,2.3
2022-12-04T15:24:35.278Z,2.2
2022-12-04T15:25:43.130Z,2.2
2022-12-04T15:26:48.946Z,2.2
2022-12-04T15:27:56.100Z,2.2
2022-12-04T15:29:02.664Z,2.1
2022-12-04T15:30:09.721Z,2.1
2022-12-04T15:31:16.938Z,2
2022-12-04T15:32:24.055Z,2
2022-12-04T15:33:31.059Z,2
2022-12-04T15:34:37.630Z,2
2022-12-04T15:35:44.739Z,2
2022-12-04T15:36:51.854Z,2
2022-12-04T15:37:58.517Z,1.9
2022-12-04T15:39:06.097Z,1.9
2022-12-04T15:40:12.645Z,1.9
2022-12-04T15:41:22.698Z,1.9
2022-12-04T15:42:26.861Z,1.9
2022-12-04T15:43:33.981Z,1.9
2022-12-04T15:44:41.057Z,1.9
2022-12-04T15:45:47.657Z,1.9
2022-12-04T15:46:54.819Z,1.9
2022-12-04T15:48:01.959Z,2
2022-12-04T15:49:09.004Z,2
2022-12-04T15:50:16.059Z,2
2022-12-04T15:51:22.658Z,2
2022-12-04T15:52:29.733Z,2
2022-12-04T15:53:36.910Z,2
2022-12-04T15:54:44.029Z,2
2022-12-04T15:55:51.075Z,2
2022-12-04T15:56:57.692Z,2.1
2022-12-04T15:58:04.863Z,2.1
2022-12-04T15:59:11.919Z,2.1
2022-12-04T16:00:18.982Z,2.1
2022-12-04T16:01:26.231Z,2.1
2022-12-04T16:02:32.802Z,2.1
2022-12-04T16:03:39.829Z,2.1
2022-12-04T16:04:46.938Z,2.1
2022-12-04T16:05:54.046Z,2.2
2022-12-04T16:07:01.090Z,2.1
2022-12-04T16:08:07.716Z,2.2
2022-12-04T16:10:21.903Z,2.2
2022-12-04T16:11:28.964Z,2.2
2022-12-04T16:12:36.204Z,2.2
2022-12-04T16:14:49.763Z,2.3
2022-12-04T16:15:57.073Z,2.2
2022-12-04T16:17:06.360Z,2.2
2022-12-04T16:18:11.118Z,2.2
2022-12-04T16:20:24.838Z,2.2
2022-12-04T16:21:31.972Z,2.2
2022-12-04T16:22:39.103Z,2.3
2022-12-04T16:23:46.154Z,2.3
2022-12-04T16:24:52.733Z,2.3